createdAt,value
2024-02-21T00:09:00.853Z,0.04
2024-02-21T00:42:12.630Z,0.05
2024-02-21T00:44:44.914Z,0.04
2024-02-21T00:47:03.697Z,0.11
2024-02-21T00:49:08.614Z,0.04
2024-02-21T01:05:26.827Z,0.04
2024-02-21T01:07:44.050Z,0.03
2024-02-21T01:09:47.869Z,0.04
2024-02-21T01:12:37.591Z,0.03
2024-02-21T01:15:14.040Z,0.04
2024-02-21T01:19:46.664Z,0.03
2024-02-21T01:21:43.185Z,0.04
2024-02-21T01:38:55.320Z,0.03
2024-02-21T01:50:19.255Z,0.04
2024-02-21T01:55:06.263Z,0.03
2024-02-21T02:15:58.288Z,0.04
2024-02-21T02:36:34.477Z,0.03
2024-02-21T02:55:14.599Z,0.04
2024-02-21T02:57:55.964Z,0.03
2024-02-21T03:02:38.630Z,0.04
2024-02-21T03:04:39.950Z,0.05
2024-02-21T03:12:21.438Z,0.12
2024-02-21T03:14:28.479Z,0.05
2024-02-21T03:16:21.814Z,0.04
2024-02-21T03:25:40.346Z,0.05
2024-02-21T03:28:25.847Z,0.04
2024-02-21T03:30:57.979Z,0.05
2024-02-21T03:33:16.856Z,0.04
2024-02-21T03:37:14.243Z,0.05
2024-02-21T03:42:16.985Z,0.04
2024-02-21T03:44:28.180Z,0.05
2024-02-21T03:51:40.622Z,0.04
2024-02-21T03:53:57.679Z,0.05
2024-02-21T04:01:27.437Z,0.04
2024-02-21T04:17:24.265Z,0.03
2024-02-21T04:22:46.983Z,0.04
2024-02-21T04:25:08.064Z,0.03
2024-02-21T04:27:15.955Z,0.04
2024-02-21T04:31:50.917Z,0.03
2024-02-21T04:36:31.965Z,0.04
2024-02-21T04:38:32.603Z,0.03
2024-02-21T04:48:17.657Z,0.02
2024-02-21T05:13:32.424Z,0.03
2024-02-21T05:15:56.224Z,0.04
2024-02-21T05:18:06.922Z,0.03
2024-02-21T05:20:03.825Z,0.04
2024-02-21T05:25:16.457Z,0.03
2024-02-21T05:27:32.760Z,0.04
2024-02-21T05:35:00.246Z,0.05
2024-02-21T05:37:22.395Z,0.06
2024-02-21T05:39:31.150Z,0.07
2024-02-21T05:41:26.651Z,0.08
2024-02-21T05:44:07.502Z,0.1
2024-02-21T05:46:35.396Z,0.13
2024-02-21T05:48:49.937Z,0.17
2024-02-21T05:50:51.183Z,0.24
2024-02-21T05:53:38.313Z,0.37
2024-02-21T05:58:32.641Z,0.79
2024-02-21T06:00:39.653Z,1.32
2024-02-21T06:02:33.284Z,1.92
2024-02-21T06:05:13.173Z,3.51
2024-02-21T06:07:39.517Z,5.42
2024-02-21T06:09:52.406Z,8.2
2024-02-21T06:11:52.107Z,11.07
2024-02-21T06:14:37.780Z,16.42
2024-02-21T06:17:10.115Z,21.96
2024-02-21T06:19:28.655Z,29.32
2024-02-21T06:21:34.129Z,42.3
2024-02-21T06:23:26.195Z,56.62
2024-02-21T06:28:28.834Z,79.06
2024-02-21T06:30:40.137Z,88.56
2024-02-21T06:32:37.425Z,104.28
2024-02-21T06:35:21.368Z,130.96
2024-02-21T06:37:51.998Z,152.92
2024-02-21T06:40:08.963Z,180
2024-02-21T06:42:12.833Z,202.3
2024-02-21T06:45:02.567Z,230.6
2024-02-21T06:47:39.013Z,265.5
2024-02-21T06:50:01.927Z,298.4
2024-02-21T06:52:11.544Z,328.9
2024-02-21T06:54:07.703Z,362.2
2024-02-21T06:56:49.947Z,414
2024-02-21T06:59:18.881Z,460.3
2024-02-21T07:01:34.446Z,491
2024-02-21T07:03:36.316Z,533.1
2024-02-21T07:06:24.503Z,676.8
2024-02-21T07:08:59.242Z,777.9
2024-02-21T07:11:20.655Z,777.2
2024-02-21T07:13:28.447Z,789.4
2024-02-21T07:15:23.268Z,813.7
2024-02-21T07:18:03.484Z,899.8
2024-02-21T07:20:30.559Z,991
2024-02-21T07:22:43.730Z,1020.1
2024-02-21T07:24:44.079Z,1051.5
2024-02-21T07:27:30.462Z,1137.9
2024-02-21T07:30:03.469Z,1172.1
2024-02-21T07:32:23.128Z,1171.2
2024-02-21T07:34:29.423Z,1204.8
2024-02-21T07:36:22.326Z,1216.6
2024-02-21T07:39:01.459Z,1277.4
2024-02-21T07:41:08.674Z,1346.5
2024-02-21T07:43:02.601Z,1421.4
2024-02-21T07:45:42.534Z,1495
2024-02-21T07:48:09.151Z,1533.4
2024-02-21T07:50:22.332Z,1527
2024-02-21T07:52:22.287Z,1774
2024-02-21T07:55:07.674Z,1925
2024-02-21T07:57:40.069Z,2021
2024-02-21T07:59:58.978Z,2044
2024-02-21T08:02:04.637Z,2049
2024-02-21T08:03:56.892Z,2060
2024-02-21T08:06:35.111Z,2147
2024-02-21T08:08:59.736Z,2161
2024-02-21T08:11:10.550Z,2083
2024-02-21T08:13:08.460Z,2038
2024-02-21T08:15:52.399Z,1947
2024-02-21T08:18:23.211Z,2040
2024-02-21T08:20:40.416Z,2004
2024-02-21T08:22:44.264Z,1889
2024-02-21T08:25:34.245Z,1806
2024-02-21T08:28:10.758Z,1528.3
2024-02-21T08:30:33.823Z,1441.9
2024-02-21T08:32:43.462Z,1296.3
2024-02-21T08:34:39.862Z,1371.5
2024-02-21T08:37:22.530Z,1440.6
2024-02-21T08:39:51.060Z,1406
2024-02-21T08:42:06.759Z,1554.5
2024-02-21T08:44:08.954Z,1591.6
2024-02-21T08:46:57.764Z,1555.2
2024-02-21T08:49:33.325Z,1803
2024-02-21T08:51:53.420Z,1691
2024-02-21T08:54:01.327Z,1784
2024-02-21T08:58:36.718Z,1858
2024-02-21T09:01:03.434Z,1836
2024-02-21T09:03:17.087Z,1801
2024-02-21T09:05:17.708Z,1825
2024-02-21T09:08:04.054Z,1905
2024-02-21T09:10:37.067Z,1978
2024-02-21T09:12:56.819Z,2350
2024-02-21T09:15:03.112Z,2030
2024-02-21T09:16:55.999Z,2266
2024-02-21T09:19:35.138Z,1615.3
2024-02-21T09:22:00.699Z,2112
2024-02-21T09:24:12.640Z,1856
2024-02-21T09:28:56.499Z,2291
2024-02-21T09:31:27.773Z,2562
2024-02-21T09:33:45.671Z,2285
2024-02-21T09:35:50.390Z,2532
2024-02-21T09:37:41.497Z,2408
2024-02-21T09:40:18.621Z,2336
2024-02-21T09:42:42.384Z,2755
2024-02-21T09:44:52.814Z,2506
2024-02-21T09:46:50.003Z,2670
2024-02-21T09:49:32.440Z,2771
2024-02-21T09:52:01.974Z,2749
2024-02-21T09:54:18.191Z,3357
2024-02-21T09:59:10.229Z,3008
2024-02-21T10:01:45.868Z,3261
2024-02-21T10:04:07.662Z,3297
2024-02-21T10:06:18.197Z,3356
2024-02-21T10:08:11.762Z,3891
2024-02-21T10:10:52.979Z,3514
2024-02-21T10:13:21.092Z,3539
2024-02-21T10:15:35.645Z,3630
2024-02-21T10:17:36.713Z,3614
2024-02-21T10:20:23.953Z,3413
2024-02-21T10:22:57.810Z,3294
2024-02-21T10:25:18.149Z,3192
2024-02-21T10:27:25.105Z,3265
2024-02-21T10:29:18.844Z,3223
2024-02-21T10:31:58.455Z,3115
2024-02-21T10:34:24.651Z,2995
2024-02-21T10:36:37.514Z,2935
2024-02-21T10:38:36.537Z,3070
2024-02-21T10:41:21.790Z,3228
2024-02-21T10:43:53.874Z,3045
2024-02-21T10:46:12.601Z,3052
2024-02-21T10:48:17.971Z,2936
2024-02-21T10:50:09.939Z,2764
2024-02-21T10:52:47.955Z,3079
2024-02-21T10:55:12.237Z,3292
2024-02-21T10:57:23.418Z,3313
2024-02-21T10:59:21.161Z,3020
2024-02-21T11:02:04.977Z,3161
2024-02-21T11:04:35.288Z,3120
2024-02-21T11:06:53.045Z,3572
2024-02-21T11:08:55.829Z,3601
2024-02-21T11:11:45.498Z,3287
2024-02-21T11:14:21.684Z,3384
2024-02-21T11:16:44.562Z,3253
2024-02-21T11:18:54.134Z,3333
2024-02-21T11:20:50.592Z,3325
2024-02-21T11:23:32.409Z,3072
2024-02-21T11:28:15.712Z,3234
2024-02-21T11:30:17.730Z,3384
2024-02-21T11:33:05.659Z,3041
2024-02-21T11:35:40.098Z,3308
2024-02-21T11:38:01.346Z,3354
2024-02-21T11:40:09.128Z,3441
2024-02-21T11:42:03.530Z,3334
2024-02-21T11:44:44.080Z,3270
2024-02-21T11:47:11.218Z,3642
2024-02-21T11:49:24.800Z,3338
2024-02-21T11:51:25.083Z,3562
2024-02-21T11:54:11.427Z,3328
2024-02-21T11:59:03.671Z,3116
2024-02-21T12:01:09.898Z,3118
2024-02-21T12:03:02.580Z,3032
2024-02-21T12:08:06.563Z,2826
2024-02-21T12:10:18.542Z,2663
2024-02-21T12:12:17.039Z,3042
2024-02-21T12:15:01.706Z,2918
2024-02-21T12:17:32.305Z,3139
2024-02-21T12:19:49.850Z,3193
2024-02-21T12:21:54.393Z,3228
2024-02-21T12:23:45.416Z,4019
2024-02-21T12:28:45.732Z,4371
2024-02-21T12:30:55.914Z,4428
2024-02-21T12:32:52.772Z,4230
2024-02-21T12:35:35.423Z,3635
2024-02-21T12:38:04.908Z,3637
2024-02-21T12:40:20.938Z,5136
2024-02-21T12:42:23.489Z,4519
2024-02-21T12:45:12.209Z,3806
2024-02-21T12:47:47.466Z,3543
2024-02-21T12:50:09.360Z,3243
2024-02-21T12:52:17.598Z,3279
2024-02-21T12:54:12.846Z,3148
2024-02-21T12:56:53.904Z,2938
2024-02-21T12:59:21.515Z,2817
2024-02-21T13:01:35.923Z,2561
2024-02-21T13:03:36.940Z,2547
2024-02-21T13:06:23.195Z,2713
2024-02-21T13:08:56.742Z,2950
2024-02-21T13:11:16.903Z,2926
2024-02-21T13:13:23.655Z,2640
2024-02-21T13:15:17.297Z,2716
2024-02-21T13:17:56.649Z,2501
2024-02-21T13:20:22.592Z,2280
2024-02-21T13:22:35.224Z,2265
2024-02-21T13:24:34.647Z,2258
2024-02-21T13:27:19.879Z,2277
2024-02-21T13:29:51.780Z,2372
2024-02-21T13:32:10.296Z,2347
2024-02-21T13:34:15.489Z,2430
2024-02-21T13:36:07.100Z,2385
2024-02-21T13:41:09.278Z,2286
2024-02-21T13:43:20.293Z,2550
2024-02-21T13:45:18.273Z,2691
2024-02-21T13:48:01.782Z,2777
2024-02-21T13:50:31.870Z,2812
2024-02-21T13:52:48.667Z,2882
2024-02-21T13:54:51.673Z,3134
2024-02-21T13:57:41.017Z,3496
2024-02-21T14:00:17.055Z,3653
2024-02-21T14:02:39.910Z,3800
2024-02-21T14:04:49.137Z,3546
2024-02-21T14:06:45.421Z,3333
2024-02-21T14:09:27.089Z,3270
2024-02-21T14:11:55.891Z,3187
2024-02-21T14:14:11.134Z,2987
2024-02-21T14:16:12.963Z,2726
2024-02-21T14:19:00.744Z,2577
2024-02-21T14:21:35.135Z,2603
2024-02-21T14:23:56.023Z,2550
2024-02-21T14:27:58.007Z,2416
2024-02-21T14:30:38.113Z,2245
2024-02-21T14:33:05.131Z,2033
2024-02-21T14:35:18.555Z,1966
2024-02-21T14:37:18.623Z,1949
2024-02-21T14:40:04.959Z,1872
2024-02-21T14:42:37.575Z,1827
2024-02-21T14:44:56.237Z,1724
2024-02-21T14:47:02.056Z,1564.1
2024-02-21T14:48:54.709Z,1472
2024-02-21T14:51:33.042Z,1515.5
2024-02-21T14:53:58.020Z,1537.9
2024-02-21T14:58:08.384Z,1479
2024-02-21T15:00:52.583Z,1474.5
2024-02-21T15:03:23.660Z,1400.9
2024-02-21T15:05:41.319Z,1375.3
2024-02-21T15:07:45.542Z,1408
2024-02-21T15:09:36.468Z,1461.7
2024-02-21T15:12:13.477Z,1488
2024-02-21T15:14:36.838Z,1426.5
2024-02-21T15:16:46.856Z,1357.4
2024-02-21T15:18:43.627Z,1324.8
2024-02-21T15:21:26.327Z,1290.5
2024-02-21T15:23:55.521Z,1257.2
2024-02-21T15:28:14.242Z,1139.5
2024-02-21T15:31:02.647Z,1024.3
2024-02-21T15:33:39.179Z,942.7
2024-02-21T15:35:59.303Z,865.6
2024-02-21T15:38:07.489Z,845.4
2024-02-21T15:40:05.428Z,836.8
2024-02-21T15:42:43.670Z,810.5
2024-02-21T15:45:11.279Z,781.7
2024-02-21T15:47:25.409Z,745.9
2024-02-21T15:49:26.536Z,710
2024-02-21T15:52:13.122Z,663
2024-02-21T15:54:46.513Z,621.7
2024-02-21T15:57:06.778Z,594.5
2024-02-21T15:59:13.681Z,578.5
2024-02-21T16:01:07.017Z,574.7
2024-02-21T16:03:46.492Z,571
2024-02-21T16:06:12.437Z,558.2
2024-02-21T16:08:25.084Z,527.8
2024-02-21T16:10:24.726Z,498.7
2024-02-21T16:13:09.623Z,459.5
2024-02-21T16:15:41.520Z,433.1
2024-02-21T16:17:59.926Z,411.6
2024-02-21T16:20:05.176Z,408.9
2024-02-21T16:21:56.323Z,411.5
2024-02-21T16:24:33.897Z,400.9
2024-02-21T16:26:58.210Z,374.5
2024-02-21T16:29:09.289Z,344.1
2024-02-21T16:31:06.761Z,298
2024-02-21T16:33:50.368Z,234.8
2024-02-21T16:36:20.537Z,185.2
2024-02-21T16:38:37.305Z,145.8
2024-02-21T16:40:40.890Z,121.48
2024-02-21T16:43:30.253Z,99.36
2024-02-21T16:46:06.202Z,74.04
2024-02-21T16:48:28.731Z,61.6
2024-02-21T16:50:41.644Z,49.12
2024-02-21T16:52:34.040Z,41.08
2024-02-21T16:55:16.927Z,31.74
2024-02-21T16:57:44.359Z,24.31
2024-02-21T16:59:59.581Z,18.01
2024-02-21T17:02:01.339Z,13.98
2024-02-21T17:04:49.233Z,9.1
2024-02-21T17:07:23.806Z,5.93
2024-02-21T17:09:44.628Z,4.02
2024-02-21T17:11:51.655Z,2.65
2024-02-21T17:13:46.299Z,1.92
2024-02-21T17:16:26.295Z,1.19
2024-02-21T17:18:53.052Z,0.83
2024-02-21T17:21:06.644Z,0.62
2024-02-21T17:23:06.875Z,0.42
2024-02-21T17:28:25.522Z,0.21
2024-02-21T17:30:44.963Z,0.17
2024-02-21T17:32:50.890Z,0.21
2024-02-21T17:34:43.712Z,0.11
2024-02-21T17:37:22.077Z,0.16
2024-02-21T17:39:29.194Z,0.09
2024-02-21T17:44:02.453Z,0.11
2024-02-21T17:46:28.865Z,0.1
2024-02-21T17:48:41.697Z,0.14
2024-02-21T17:50:41.146Z,0.06
2024-02-21T17:53:26.798Z,0.13
2024-02-21T17:58:17.457Z,0.12
2024-02-21T18:00:22.358Z,0.13
2024-02-21T18:04:52.332Z,0.05
2024-02-21T18:07:16.727Z,0.13
2024-02-21T18:09:27.972Z,0.14
2024-02-21T18:11:26.053Z,0.13
2024-02-21T18:21:01.204Z,0.06
2024-02-21T18:40:22.526Z,0.07
2024-02-21T18:59:17.983Z,0.14
2024-02-21T19:01:31.598Z,0.15
2024-02-21T19:03:32.000Z,0.08
2024-02-21T19:17:48.643Z,0.07
2024-02-21T19:34:03.333Z,0.08
2024-02-21T19:40:55.019Z,0.09
2024-02-21T19:43:05.296Z,0.1
2024-02-21T19:45:02.320Z,0.11
2024-02-21T19:47:45.559Z,0.09
2024-02-21T19:50:15.102Z,0.08
2024-02-21T19:54:34.218Z,0.15
2024-02-21T19:59:58.679Z,0.08
2024-02-21T20:02:20.804Z,0.15
2024-02-21T20:04:29.750Z,0.08
2024-02-21T20:30:11.085Z,0.15
2024-02-21T20:32:37.189Z,0.08
2024-02-21T20:39:34.830Z,0.15
2024-02-21T20:42:06.955Z,0.12
2024-02-21T20:44:26.011Z,0.11
2024-02-21T20:46:31.073Z,0.09
2024-02-21T20:48:23.258Z,0.11
2024-02-21T20:51:01.271Z,0.17
2024-02-21T20:57:34.840Z,0.08
2024-02-21T21:24:14.707Z,0.07
2024-02-21T21:26:29.925Z,0.08
2024-02-21T21:38:23.772Z,0.09
2024-02-21T21:40:18.155Z,0.08
2024-02-21T21:42:58.779Z,0.15
2024-02-21T21:45:26.041Z,0.07
2024-02-21T22:03:57.017Z,0.08
2024-02-21T22:31:10.897Z,0.07
2024-02-21T22:36:25.068Z,0.08
2024-02-21T22:46:07.242Z,0.07
2024-02-21T23:09:39.743Z,0.08
2024-02-21T23:11:46.824Z,0.07
2024-02-21T23:16:20.342Z,0.06
2024-02-21T23:30:35.626Z,0.05
2024-02-21T23:37:11.181Z,0.06
2024-02-21T23:48:59.089Z,0.05
